Terminal Aerodrome Forecast
Issued by NWS

Home | Current Version | Previous Version | Text Only | Print | Product List | Glossary On
Versions: 1 2 3 4 5 6 7 8 9 10 11 12 13 14 15 16 17 18 19 20 21 22 23 24
000
FTUS43 KDLH 250539
TAFBRD
TAF
KBRD 250539Z 2506/2606 15012G18KT 3SM -SHRA BR OVC008 WS020/17044KT
      TEMPO 2507/2509 2SM -TSRA BKN008 OVC023CB
     FM250900 17009KT 2SM BR VCSH OVC006
      TEMPO 2510/2512 3/4SM -SHRA BR BKN004
     FM251400 21010KT P6SM BKN020
     FM251700 24012G18KT P6SM SCT040
     FM252200 27014G24KT P6SM VCSH BKN035
     FM260200 29016G26KT 4SM -SHRA BR SCT008 BKN015=

USA.gov is the U.S. government's official web portal to all federal, state and local government web resources and services.